sensor_id;sensor_type;location;lat;lon;timestamp;temperature;humidity
3156;DHT22;1588;50.892;7.082;2023-01-28T00:02:59;3.30;99.90
3156;DHT22;1588;50.892;7.082;2023-01-28T00:08:12;3.30;99.90
3156;DHT22;1588;50.892;7.082;2023-01-28T00:13:15;3.20;99.90
3156;DHT22;1588;50.892;7.082;2023-01-28T00:18:18;3.00;99.90
3156;DHT22;1588;50.892;7.082;2023-01-28T00:23:26;2.90;99.90
3156;DHT22;1588;50.892;7.082;2023-01-28T00:28:34;2.80;99.90
3156;DHT22;1588;50.892;7.082;2023-01-28T00:33:47;2.60;99.90
3156;DHT22;1588;50.892;7.082;2023-01-28T00:38:58;2.40;99.90
3156;DHT22;1588;50.892;7.082;2023-01-28T00:44:00;2.30;99.90
3156;DHT22;1588;50.892;7.082;2023-01-28T00:49:02;2.20;99.90
3156;DHT22;1588;50.892;7.082;2023-01-28T00:54:07;2.10;99.90
3156;DHT22;1588;50.892;7.082;2023-01-28T00:59:09;2.00;99.90
3156;DHT22;1588;50.892;7.082;2023-01-28T01:04:12;1.90;99.90
3156;DHT22;1588;50.892;7.082;2023-01-28T01:09:27;1.90;99.90
3156;DHT22;1588;50.892;7.082;2023-01-28T01:14:30;1.90;99.90
3156;DHT22;1588;50.892;7.082;2023-01-28T01:19:32;1.80;99.90
3156;DHT22;1588;50.892;7.082;2023-01-28T01:24:36;1.70;99.90
3156;DHT22;1588;50.892;7.082;2023-01-28T01:29:39;1.60;99.90
3156;DHT22;1588;50.892;7.082;2023-01-28T01:34:41;1.50;99.90
3156;DHT22;1588;50.892;7.082;2023-01-28T01:39:45;1.30;99.90
3156;DHT22;1588;50.892;7.082;2023-01-28T01:44:56;1.20;99.90
3156;DHT22;1588;50.892;7.082;2023-01-28T01:50:03;1.10;99.90
3156;DHT22;1588;50.892;7.082;2023-01-28T01:55:20;0.90;99.90
3156;DHT22;1588;50.892;7.082;2023-01-28T02:00:23;0.80;99.90
3156;DHT22;1588;50.892;7.082;2023-01-28T02:05:26;0.80;99.90
3156;DHT22;1588;50.892;7.082;2023-01-28T02:10:30;0.70;99.90
3156;DHT22;1588;50.892;7.082;2023-01-28T02:15:34;0.70;99.90
3156;DHT22;1588;50.892;7.082;2023-01-28T02:20:47;0.60;99.90
3156;DHT22;1588;50.892;7.082;2023-01-28T02:31:33;0.50;99.90
3156;DHT22;1588;50.892;7.082;2023-01-28T02:36:41;0.50;99.90
3156;DHT22;1588;50.892;7.082;2023-01-28T02:41:52;0.30;99.90
3156;DHT22;1588;50.892;7.082;2023-01-28T02:46:57;0.20;99.90
3156;DHT22;1588;50.892;7.082;2023-01-28T02:52:43;0.10;99.90
3156;DHT22;1588;50.892;7.082;2023-01-28T02:58:12;0.00;99.90
3156;DHT22;1588;50.892;7.082;2023-01-28T03:03:21;0.20;99.90
3156;DHT22;1588;50.892;7.082;2023-01-28T03:08:30;0.30;99.90
3156;DHT22;1588;50.892;7.082;2023-01-28T03:13:51;0.20;99.90
3156;DHT22;1588;50.892;7.082;2023-01-28T03:19:14;0.20;99.90
3156;DHT22;1588;50.892;7.082;2023-01-28T03:24:39;0.20;99.90
3156;DHT22;1588;50.892;7.082;2023-01-28T03:30:14;0.20;99.90
3156;DHT22;1588;50.892;7.082;2023-01-28T03:35:37;0.10;99.90
3156;DHT22;1588;50.892;7.082;2023-01-28T03:41:00;0.10;99.90
3156;DHT22;1588;50.892;7.082;2023-01-28T03:46:03;0.20;99.90
3156;DHT22;1588;50.892;7.082;2023-01-28T03:51:07;0.20;99.90
3156;DHT22;1588;50.892;7.082;2023-01-28T03:56:10;0.10;99.90
3156;DHT22;1588;50.892;7.082;2023-01-28T04:01:18;0.10;99.90
3156;DHT22;1588;50.892;7.082;2023-01-28T04:06:23;0.10;99.90
3156;DHT22;1588;50.892;7.082;2023-01-28T04:11:25;0.10;99.90
3156;DHT22;1588;50.892;7.082;2023-01-28T04:16:27;0.10;99.90
3156;DHT22;1588;50.892;7.082;2023-01-28T04:21:31;0.10;99.90
3156;DHT22;1588;50.892;7.082;2023-01-28T04:26:34;0.10;99.90
3156;DHT22;1588;50.892;7.082;2023-01-28T04:31:37;0.10;99.90
3156;DHT22;1588;50.892;7.082;2023-01-28T04:36:40;0.10;99.90
3156;DHT22;1588;50.892;7.082;2023-01-28T04:41:43;0.10;99.90
3156;DHT22;1588;50.892;7.082;2023-01-28T04:46:49;0.10;99.90
3156;DHT22;1588;50.892;7.082;2023-01-28T04:51:53;0.10;99.90
3156;DHT22;1588;50.892;7.082;2023-01-28T04:56:55;0.10;99.90
3156;DHT22;1588;50.892;7.082;2023-01-28T05:01:58;0.10;99.90
3156;DHT22;1588;50.892;7.082;2023-01-28T05:07:02;0.00;99.90
3156;DHT22;1588;50.892;7.082;2023-01-28T05:12:05;-0.10;99.90
3156;DHT22;1588;50.892;7.082;2023-01-28T05:17:08;-0.10;99.90
3156;DHT22;1588;50.892;7.082;2023-01-28T05:22:12;-0.10;99.90
3156;DHT22;1588;50.892;7.082;2023-01-28T05:27:18;0.10;99.90
3156;DHT22;1588;50.892;7.082;2023-01-28T05:32:21;0.30;99.90
3156;DHT22;1588;50.892;7.082;2023-01-28T05:37:24;0.40;99.90
3156;DHT22;1588;50.892;7.082;2023-01-28T05:42:27;0.50;99.90
3156;DHT22;1588;50.892;7.082;2023-01-28T05:47:29;0.50;99.90
3156;DHT22;1588;50.892;7.082;2023-01-28T05:52:33;0.60;99.90
3156;DHT22;1588;50.892;7.082;2023-01-28T05:57:36;0.70;99.90
3156;DHT22;1588;50.892;7.082;2023-01-28T06:02:38;0.80;99.90
3156;DHT22;1588;50.892;7.082;2023-01-28T06:07:44;0.90;99.90
3156;DHT22;1588;50.892;7.082;2023-01-28T06:12:47;0.90;99.90
3156;DHT22;1588;50.892;7.082;2023-01-28T06:17:49;0.90;99.90
3156;DHT22;1588;50.892;7.082;2023-01-28T06:22:53;0.90;99.90
3156;DHT22;1588;50.892;7.082;2023-01-28T06:27:56;1.00;99.90
3156;DHT22;1588;50.892;7.082;2023-01-28T06:32:58;1.00;99.90
3156;DHT22;1588;50.892;7.082;2023-01-28T06:38:02;1.10;99.90
3156;DHT22;1588;50.892;7.082;2023-01-28T06:43:05;1.10;99.90
3156;DHT22;1588;50.892;7.082;2023-01-28T06:48:08;1.10;99.90
3156;DHT22;1588;50.892;7.082;2023-01-28T06:53:17;1.20;99.90
3156;DHT22;1588;50.892;7.082;2023-01-28T06:58:19;1.20;99.90
3156;DHT22;1588;50.892;7.082;2023-01-28T07:03:25;1.10;99.90
3156;DHT22;1588;50.892;7.082;2023-01-28T07:08:28;1.20;99.90
3156;DHT22;1588;50.892;7.082;2023-01-28T07:13:31;1.20;99.90
3156;DHT22;1588;50.892;7.082;2023-01-28T07:18:33;1.20;99.90
3156;DHT22;1588;50.892;7.082;2023-01-28T07:23:37;1.20;99.90
3156;DHT22;1588;50.892;7.082;2023-01-28T07:28:40;1.20;99.90
3156;DHT22;1588;50.892;7.082;2023-01-28T07:33:43;1.20;99.90
3156;DHT22;1588;50.892;7.082;2023-01-28T07:38:46;1.20;99.90
3156;DHT22;1588;50.892;7.082;2023-01-28T07:43:49;1.20;99.90
3156;DHT22;1588;50.892;7.082;2023-01-28T07:48:52;1.20;99.90
3156;DHT22;1588;50.892;7.082;2023-01-28T07:53:56;1.20;99.90
3156;DHT22;1588;50.892;7.082;2023-01-28T07:58:59;1.30;99.90
3156;DHT22;1588;50.892;7.082;2023-01-28T08:04:01;1.30;99.90
3156;DHT22;1588;50.892;7.082;2023-01-28T08:09:06;1.40;99.90
3156;DHT22;1588;50.892;7.082;2023-01-28T08:14:11;1.40;99.90
3156;DHT22;1588;50.892;7.082;2023-01-28T08:19:13;1.40;99.90
3156;DHT22;1588;50.892;7.082;2023-01-28T08:24:17;1.60;99.90
3156;DHT22;1588;50.892;7.082;2023-01-28T08:29:20;1.60;99.90
3156;DHT22;1588;50.892;7.082;2023-01-28T08:34:22;1.70;99.90
3156;DHT22;1588;50.892;7.082;2023-01-28T08:39:26;1.70;99.90
3156;DHT22;1588;50.892;7.082;2023-01-28T08:44:32;1.70;99.90
3156;DHT22;1588;50.892;7.082;2023-01-28T08:49:35;1.70;99.90
3156;DHT22;1588;50.892;7.082;2023-01-28T08:54:39;1.70;99.90
3156;DHT22;1588;50.892;7.082;2023-01-28T08:59:42;1.80;99.90
3156;DHT22;1588;50.892;7.082;2023-01-28T09:04:46;1.80;99.90
3156;DHT22;1588;50.892;7.082;2023-01-28T09:09:50;1.90;99.90
3156;DHT22;1588;50.892;7.082;2023-01-28T09:14:52;2.00;99.90
3156;DHT22;1588;50.892;7.082;2023-01-28T09:19:55;2.00;99.90
3156;DHT22;1588;50.892;7.082;2023-01-28T09:24:59;2.00;99.90
3156;DHT22;1588;50.892;7.082;2023-01-28T09:30:01;2.00;99.90
3156;DHT22;1588;50.892;7.082;2023-01-28T09:35:04;1.90;99.90
3156;DHT22;1588;50.892;7.082;2023-01-28T09:40:14;2.00;99.90
3156;DHT22;1588;50.892;7.082;2023-01-28T09:45:20;2.00;99.90
3156;DHT22;1588;50.892;7.082;2023-01-28T09:50:30;2.00;99.90
3156;DHT22;1588;50.892;7.082;2023-01-28T09:55:36;2.00;99.90
3156;DHT22;1588;50.892;7.082;2023-01-28T10:00:45;2.10;99.90
3156;DHT22;1588;50.892;7.082;2023-01-28T10:05:54;2.10;99.90
3156;DHT22;1588;50.892;7.082;2023-01-28T10:11:06;2.00;99.90
3156;DHT22;1588;50.892;7.082;2023-01-28T10:16:23;2.00;99.90
3156;DHT22;1588;50.892;7.082;2023-01-28T10:21:37;2.00;99.90
3156;DHT22;1588;50.892;7.082;2023-01-28T10:26:43;2.00;99.90
3156;DHT22;1588;50.892;7.082;2023-01-28T10:31:51;2.00;99.90
3156;DHT22;1588;50.892;7.082;2023-01-28T10:36:55;2.00;99.90
3156;DHT22;1588;50.892;7.082;2023-01-28T10:41:59;2.10;99.90
3156;DHT22;1588;50.892;7.082;2023-01-28T10:47:12;2.10;99.90
3156;DHT22;1588;50.892;7.082;2023-01-28T10:52:16;2.10;99.90
3156;DHT22;1588;50.892;7.082;2023-01-28T10:57:20;2.10;99.90
3156;DHT22;1588;50.892;7.082;2023-01-28T11:02:28;2.00;99.90
3156;DHT22;1588;50.892;7.082;2023-01-28T11:07:32;1.90;99.90
3156;DHT22;1588;50.892;7.082;2023-01-28T11:12:36;1.90;99.90
3156;DHT22;1588;50.892;7.082;2023-01-28T11:17:39;2.00;99.90
3156;DHT22;1588;50.892;7.082;2023-01-28T11:22:42;2.10;99.90
3156;DHT22;1588;50.892;7.082;2023-01-28T11:27:48;2.10;99.90
3156;DHT22;1588;50.892;7.082;2023-01-28T11:32:55;2.10;99.90
3156;DHT22;1588;50.892;7.082;2023-01-28T11:38:17;2.00;99.90
3156;DHT22;1588;50.892;7.082;2023-01-28T11:43:24;2.00;99.90
3156;DHT22;1588;50.892;7.082;2023-01-28T11:48:34;2.00;99.90
3156;DHT22;1588;50.892;7.082;2023-01-28T11:53:57;2.10;99.90
3156;DHT22;1588;50.892;7.082;2023-01-28T11:59:20;2.20;99.90
3156;DHT22;1588;50.892;7.082;2023-01-28T12:04:40;2.20;99.90
3156;DHT22;1588;50.892;7.082;2023-01-28T12:09:53;2.30;99.90
3156;DHT22;1588;50.892;7.082;2023-01-28T12:15:20;2.20;99.90
3156;DHT22;1588;50.892;7.082;2023-01-28T12:20:28;2.20;99.90
3156;DHT22;1588;50.892;7.082;2023-01-28T12:25:42;2.20;99.90
3156;DHT22;1588;50.892;7.082;2023-01-28T12:31:00;2.30;99.90
3156;DHT22;1588;50.892;7.082;2023-01-28T12:36:12;2.30;99.90
3156;DHT22;1588;50.892;7.082;2023-01-28T12:41:24;2.40;99.90
3156;DHT22;1588;50.892;7.082;2023-01-28T12:46:38;2.40;99.90
3156;DHT22;1588;50.892;7.082;2023-01-28T12:51:52;2.40;99.90
3156;DHT22;1588;50.892;7.082;2023-01-28T12:56:55;2.40;99.90
3156;DHT22;1588;50.892;7.082;2023-01-28T13:02:16;2.40;99.90
3156;DHT22;1588;50.892;7.082;2023-01-28T13:07:25;2.40;99.90
3156;DHT22;1588;50.892;7.082;2023-01-28T13:12:28;2.40;99.90
3156;DHT22;1588;50.892;7.082;2023-01-28T13:17:33;2.60;99.90
3156;DHT22;1588;50.892;7.082;2023-01-28T13:22:36;2.70;99.90
3156;DHT22;1588;50.892;7.082;2023-01-28T13:27:38;2.80;99.90
3156;DHT22;1588;50.892;7.082;2023-01-28T13:32:42;2.70;99.90
3156;DHT22;1588;50.892;7.082;2023-01-28T13:38:05;2.70;99.90
3156;DHT22;1588;50.892;7.082;2023-01-28T13:43:34;2.70;99.90
3156;DHT22;1588;50.892;7.082;2023-01-28T13:48:49;2.70;99.90
3156;DHT22;1588;50.892;7.082;2023-01-28T13:53:59;2.30;99.90
3156;DHT22;1588;50.892;7.082;2023-01-28T14:10:32;2.50;99.90
3156;DHT22;1588;50.892;7.082;2023-01-28T14:15:51;2.60;99.90
3156;DHT22;1588;50.892;7.082;2023-01-28T14:21:01;2.80;99.90
3156;DHT22;1588;50.892;7.082;2023-01-28T14:26:17;2.80;99.90
3156;DHT22;1588;50.892;7.082;2023-01-28T14:31:26;2.80;99.90
3156;DHT22;1588;50.892;7.082;2023-01-28T14:36:34;2.80;99.90
3156;DHT22;1588;50.892;7.082;2023-01-28T14:41:36;2.80;99.90
3156;DHT22;1588;50.892;7.082;2023-01-28T14:46:43;2.70;99.90
3156;DHT22;1588;50.892;7.082;2023-01-28T14:52:06;2.70;99.90
3156;DHT22;1588;50.892;7.082;2023-01-28T14:57:20;2.50;99.90
3156;DHT22;1588;50.892;7.082;2023-01-28T15:02:29;2.30;99.90
3156;DHT22;1588;50.892;7.082;2023-01-28T15:07:33;2.20;99.90
3156;DHT22;1588;50.892;7.082;2023-01-28T15:12:38;2.00;99.90
3156;DHT22;1588;50.892;7.082;2023-01-28T15:17:43;1.90;99.90
3156;DHT22;1588;50.892;7.082;2023-01-28T15:22:47;1.90;99.90
3156;DHT22;1588;50.892;7.082;2023-01-28T15:27:51;1.80;99.90
3156;DHT22;1588;50.892;7.082;2023-01-28T15:33:02;1.80;99.90
3156;DHT22;1588;50.892;7.082;2023-01-28T15:38:09;1.60;99.90
3156;DHT22;1588;50.892;7.082;2023-01-28T15:43:16;1.50;99.90
3156;DHT22;1588;50.892;7.082;2023-01-28T15:48:19;1.30;99.90
3156;DHT22;1588;50.892;7.082;2023-01-28T15:53:23;1.20;99.90
3156;DHT22;1588;50.892;7.082;2023-01-28T15:58:28;1.10;99.90
3156;DHT22;1588;50.892;7.082;2023-01-28T16:03:43;0.90;99.90
3156;DHT22;1588;50.892;7.082;2023-01-28T16:08:51;0.70;99.90
3156;DHT22;1588;50.892;7.082;2023-01-28T16:13:55;0.50;99.90
3156;DHT22;1588;50.892;7.082;2023-01-28T16:18:58;0.30;99.90
3156;DHT22;1588;50.892;7.082;2023-01-28T16:24:18;0.20;99.90
3156;DHT22;1588;50.892;7.082;2023-01-28T16:29:25;0.00;99.90
3156;DHT22;1588;50.892;7.082;2023-01-28T16:34:27;-0.10;99.90
3156;DHT22;1588;50.892;7.082;2023-01-28T16:39:31;-0.40;99.90
3156;DHT22;1588;50.892;7.082;2023-01-28T16:44:35;-0.50;99.90
3156;DHT22;1588;50.892;7.082;2023-01-28T16:49:38;-0.50;99.90
3156;DHT22;1588;50.892;7.082;2023-01-28T16:54:52;-0.60;99.90
3156;DHT22;1588;50.892;7.082;2023-01-28T17:00:15;-0.70;99.90
3156;DHT22;1588;50.892;7.082;2023-01-28T17:05:18;-0.60;99.90
3156;DHT22;1588;50.892;7.082;2023-01-28T17:10:22;-0.60;99.90
3156;DHT22;1588;50.892;7.082;2023-01-28T17:15:25;-0.80;99.90
3156;DHT22;1588;50.892;7.082;2023-01-28T17:20:27;-0.90;99.90
3156;DHT22;1588;50.892;7.082;2023-01-28T17:25:35;-1.10;99.90
3156;DHT22;1588;50.892;7.082;2023-01-28T17:30:39;-1.10;99.90
3156;DHT22;1588;50.892;7.082;2023-01-28T17:35:45;-1.20;99.90
3156;DHT22;1588;50.892;7.082;2023-01-28T17:40:49;-1.30;99.90
3156;DHT22;1588;50.892;7.082;2023-01-28T17:45:51;-1.20;99.90
3156;DHT22;1588;50.892;7.082;2023-01-28T17:50:55;-1.30;99.90
3156;DHT22;1588;50.892;7.082;2023-01-28T17:56:00;-1.30;99.90
3156;DHT22;1588;50.892;7.082;2023-01-28T18:01:07;-1.30;99.90
3156;DHT22;1588;50.892;7.082;2023-01-28T18:06:10;-1.30;99.90
3156;DHT22;1588;50.892;7.082;2023-01-28T18:11:15;-1.60;99.90
3156;DHT22;1588;50.892;7.082;2023-01-28T18:16:19;-1.60;99.90
3156;DHT22;1588;50.892;7.082;2023-01-28T18:21:34;-1.70;99.90
3156;DHT22;1588;50.892;7.082;2023-01-28T18:26:38;-1.70;99.90
3156;DHT22;1588;50.892;7.082;2023-01-28T18:31:40;-1.70;99.90
3156;DHT22;1588;50.892;7.082;2023-01-28T18:36:43;-1.70;99.90
3156;DHT22;1588;50.892;7.082;2023-01-28T18:41:47;-1.90;99.90
3156;DHT22;1588;50.892;7.082;2023-01-28T18:46:49;-1.90;99.90
3156;DHT22;1588;50.892;7.082;2023-01-28T18:51:52;-1.90;99.90
3156;DHT22;1588;50.892;7.082;2023-01-28T18:57:07;-2.00;99.90
3156;DHT22;1588;50.892;7.082;2023-01-28T19:02:17;-2.10;99.90
3156;DHT22;1588;50.892;7.082;2023-01-28T19:07:19;-2.20;99.90
3156;DHT22;1588;50.892;7.082;2023-01-28T19:12:23;-2.20;99.90
3156;DHT22;1588;50.892;7.082;2023-01-28T19:17:46;-2.20;99.90
3156;DHT22;1588;50.892;7.082;2023-01-28T19:22:48;-2.20;99.90
3156;DHT22;1588;50.892;7.082;2023-01-28T19:27:53;-2.30;99.90
3156;DHT22;1588;50.892;7.082;2023-01-28T19:32:56;-2.30;99.90
3156;DHT22;1588;50.892;7.082;2023-01-28T19:38:01;-2.40;99.90
3156;DHT22;1588;50.892;7.082;2023-01-28T19:43:05;-2.30;99.90
3156;DHT22;1588;50.892;7.082;2023-01-28T19:48:08;-2.40;99.90
3156;DHT22;1588;50.892;7.082;2023-01-28T19:53:10;-2.40;99.90
3156;DHT22;1588;50.892;7.082;2023-01-28T19:58:14;-2.50;99.90
3156;DHT22;1588;50.892;7.082;2023-01-28T20:03:26;-2.60;99.90
3156;DHT22;1588;50.892;7.082;2023-01-28T20:08:30;-2.60;99.90
3156;DHT22;1588;50.892;7.082;2023-01-28T20:13:38;-2.50;99.90
3156;DHT22;1588;50.892;7.082;2023-01-28T20:18:41;-2.60;99.90
3156;DHT22;1588;50.892;7.082;2023-01-28T20:23:44;-2.70;99.90
3156;DHT22;1588;50.892;7.082;2023-01-28T20:28:49;-2.80;99.90
3156;DHT22;1588;50.892;7.082;2023-01-28T20:34:02;-2.80;99.90
3156;DHT22;1588;50.892;7.082;2023-01-28T20:39:24;-2.90;99.90
3156;DHT22;1588;50.892;7.082;2023-01-28T20:44:30;-3.00;99.90
3156;DHT22;1588;50.892;7.082;2023-01-28T20:49:43;-3.00;99.90
3156;DHT22;1588;50.892;7.082;2023-01-28T20:54:55;-3.00;99.90
3156;DHT22;1588;50.892;7.082;2023-01-28T20:59:59;-3.10;99.90
3156;DHT22;1588;50.892;7.082;2023-01-28T21:05:07;-3.00;99.90
3156;DHT22;1588;50.892;7.082;2023-01-28T21:10:16;-3.10;99.90
3156;DHT22;1588;50.892;7.082;2023-01-28T21:15:30;-3.20;99.90
3156;DHT22;1588;50.892;7.082;2023-01-28T21:20:34;-3.10;99.90
3156;DHT22;1588;50.892;7.082;2023-01-28T21:25:46;-3.30;99.90
3156;DHT22;1588;50.892;7.082;2023-01-28T21:31:06;-3.30;99.90
3156;DHT22;1588;50.892;7.082;2023-01-28T21:36:19;-3.30;99.90
3156;DHT22;1588;50.892;7.082;2023-01-28T21:41:21;-3.30;99.90
3156;DHT22;1588;50.892;7.082;2023-01-28T21:46:31;-3.30;99.90
3156;DHT22;1588;50.892;7.082;2023-01-28T21:51:34;-3.40;99.90
3156;DHT22;1588;50.892;7.082;2023-01-28T21:56:40;-3.40;99.90
3156;DHT22;1588;50.892;7.082;2023-01-28T22:01:45;-3.40;99.90
3156;DHT22;1588;50.892;7.082;2023-01-28T22:06:47;-3.50;99.90
3156;DHT22;1588;50.892;7.082;2023-01-28T22:11:50;-3.60;99.90
3156;DHT22;1588;50.892;7.082;2023-01-28T22:16:54;-3.60;99.90
3156;DHT22;1588;50.892;7.082;2023-01-28T22:21:56;-3.60;99.90
3156;DHT22;1588;50.892;7.082;2023-01-28T22:26:58;-3.70;99.90
3156;DHT22;1588;50.892;7.082;2023-01-28T22:32:03;-3.70;99.90
3156;DHT22;1588;50.892;7.082;2023-01-28T22:37:06;-3.70;99.90
3156;DHT22;1588;50.892;7.082;2023-01-28T22:42:14;-3.80;99.90
3156;DHT22;1588;50.892;7.082;2023-01-28T22:47:21;-3.80;99.90
3156;DHT22;1588;50.892;7.082;2023-01-28T22:52:23;-3.80;99.90
3156;DHT22;1588;50.892;7.082;2023-01-28T22:57:25;-3.80;99.90
3156;DHT22;1588;50.892;7.082;2023-01-28T23:02:29;-3.80;99.90
3156;DHT22;1588;50.892;7.082;2023-01-28T23:07:31;-3.90;99.90
3156;DHT22;1588;50.892;7.082;2023-01-28T23:12:34;-3.90;99.90
3156;DHT22;1588;50.892;7.082;2023-01-28T23:17:37;-4.00;99.90
3156;DHT22;1588;50.892;7.082;2023-01-28T23:22:57;-4.10;99.90
3156;DHT22;1588;50.892;7.082;2023-01-28T23:28:17;-4.10;99.90
3156;DHT22;1588;50.892;7.082;2023-01-28T23:33:26;-4.20;99.90
3156;DHT22;1588;50.892;7.082;2023-01-28T23:38:29;-4.20;99.90
3156;DHT22;1588;50.892;7.082;2023-01-28T23:43:31;-4.20;99.90
3156;DHT22;1588;50.892;7.082;2023-01-28T23:48:35;-4.20;99.90
3156;DHT22;1588;50.892;7.082;2023-01-28T23:53:48;-4.20;99.90
3156;DHT22;1588;50.892;7.082;2023-01-28T23:58:53;-4.30;99.90
